Time;durP1;ratioP1;P1;durP2;ratioP2;P2;SDS_P1;SDS_P2;PMS_P1;PMS_P2;Temp;Humidity;BMP_temperature;BMP_pressure;BME280_temperature;BME280_humidity;BME280_pressure;Samples;Min_cycle;Max_cycle;Signal;HPM_P1;HPM_P2
2021/06/20 00:00:32;;;;;;;9.82;8.85;;;;;;;23.42;56.71;95749.19;5073991;28;20036;-78
2021/06/20 00:02:59;;;;;;;10.32;9.32;;;;;;;23.35;56.87;95760.41;5072758;28;20054;-78
2021/06/20 00:05:29;;;;;;;10.82;9.13;;;;;;;23.26;57.32;95757.34;5072439;28;20044;-78
2021/06/20 00:07:57;;;;;;;11.52;9.15;;;;;;;23.25;57.09;95755.78;5072977;28;20499;-78
2021/06/20 00:10:27;;;;;;;13.98;9.88;;;;;;;23.26;57.17;95758.13;5072583;28;20044;-79
2021/06/20 00:12:57;;;;;;;10.10;9.07;;;;;;;23.28;57.72;95755.72;5072735;28;20048;-81
2021/06/20 00:15:26;;;;;;;13.18;9.95;;;;;;;23.29;57.51;95753.75;5072271;28;20407;-79
2021/06/20 00:17:52;;;;;;;12.55;9.55;;;;;;;23.33;57.69;95757.25;5072828;28;20036;-79
2021/06/20 00:20:21;;;;;;;13.10;10.05;;;;;;;23.33;57.65;95746.91;5072127;28;20415;-80
2021/06/20 00:22:48;;;;;;;12.85;9.32;;;;;;;23.35;57.68;95743.75;5072643;28;20047;-80
2021/06/20 00:25:15;;;;;;;11.45;9.98;;;;;;;23.37;57.81;95752.44;5069878;28;20048;-79
2021/06/20 00:27:42;;;;;;;11.68;9.82;;;;;;;23.37;57.46;95735.78;5052531;28;20045;-80
2021/06/20 00:30:14;;;;;;;11.57;10.18;;;;;;;23.38;57.16;95735.34;5068059;28;20052;-80
2021/06/20 00:32:40;;;;;;;11.85;9.57;;;;;;;23.39;57.23;95738.94;5072512;28;20040;-80
2021/06/20 00:35:08;;;;;;;11.32;10.13;;;;;;;23.40;57.27;95735.75;5071748;28;20419;-79
2021/06/20 00:37:34;;;;;;;12.68;10.52;;;;;;;23.39;56.76;95734.16;5072482;28;20044;-79
2021/06/20 00:40:01;;;;;;;12.23;10.20;;;;;;;23.41;57.47;95736.53;5072158;28;20045;-79
2021/06/20 00:42:27;;;;;;;11.07;9.95;;;;;;;23.40;57.08;95741.28;5071822;28;20032;-79
2021/06/20 00:44:54;;;;;;;13.13;11.23;;;;;;;23.38;56.81;95732.56;5072215;28;20069;-79
2021/06/20 00:47:22;;;;;;;14.18;10.98;;;;;;;23.40;57.07;95737.72;5071532;28;20075;-79
2021/06/20 00:49:49;;;;;;;11.95;10.55;;;;;;;23.40;57.15;95732.97;5072122;28;20394;-79
2021/06/20 00:52:15;;;;;;;12.68;10.93;;;;;;;23.40;57.57;95724.63;5071743;28;20051;-79
2021/06/20 00:54:47;;;;;;;11.88;10.57;;;;;;;23.40;57.88;95721.06;5072009;28;20044;-79
2021/06/20 00:57:14;;;;;;;12.63;11.05;;;;;;;23.41;57.89;95712.31;5071274;28;20052;-79
2021/06/20 00:59:41;;;;;;;10.80;9.65;;;;;;;23.43;58.24;95711.88;5071810;28;20051;-79
2021/06/20 01:02:07;;;;;;;11.70;10.15;;;;;;;23.44;57.67;95711.47;5071405;28;20044;-79
2021/06/20 01:04:35;;;;;;;11.57;10.18;;;;;;;23.43;57.66;95711.88;5071789;28;20044;-79
2021/06/20 01:07:01;;;;;;;12.00;9.73;;;;;;;23.36;58.56;95717.53;5071789;28;20060;-80
2021/06/20 01:09:28;;;;;;;13.90;11.13;;;;;;;23.33;59.22;95718.34;5091449;28;20040;-79
2021/06/20 01:11:54;;;;;;;12.50;11.20;;;;;;;23.30;59.00;95727.53;5091892;28;20043;-79
2021/06/20 01:14:21;;;;;;;12.02;10.73;;;;;;;23.29;58.72;95728.75;5090621;28;20055;-79
2021/06/20 01:16:49;;;;;;;13.88;11.07;;;;;;;23.26;58.56;95727.56;5091740;28;20044;-79
2021/06/20 01:19:16;;;;;;;12.60;11.30;;;;;;;23.25;58.80;95722.44;5091198;28;20040;-79
2021/06/20 01:21:44;;;;;;;13.63;11.38;;;;;;;23.19;58.70;95724.91;5091700;28;20040;-79
2021/06/20 01:24:12;;;;;;;12.85;11.25;;;;;;;23.19;58.41;95741.56;5090987;28;20044;-79
2021/06/20 01:26:39;;;;;;;13.63;10.60;;;;;;;23.17;58.66;95741.94;5102913;28;20035;-79
2021/06/20 01:29:08;;;;;;;15.52;11.68;;;;;;;23.13;58.83;95744.00;5103956;28;20083;-79
2021/06/20 01:31:35;;;;;;;12.10;10.75;;;;;;;23.10;58.90;95738.50;5091638;28;20042;-78
2021/06/20 01:34:05;;;;;;;12.02;10.80;;;;;;;23.10;58.90;95744.81;5091342;28;20067;-79
2021/06/20 01:36:32;;;;;;;11.05;9.90;;;;;;;23.11;59.31;95745.59;5070886;28;20043;-79
2021/06/20 01:38:59;;;;;;;14.23;10.85;;;;;;;23.11;59.14;95740.06;5071176;28;20045;-80
2021/06/20 01:41:27;;;;;;;12.93;11.43;;;;;;;23.07;59.21;95740.09;5070758;28;20052;-80
2021/06/20 01:43:54;;;;;;;12.57;11.27;;;;;;;23.04;59.80;95727.06;5071047;28;20047;-80
2021/06/20 01:46:20;;;;;;;12.25;10.38;;;;;;;23.00;59.01;95701.31;5070623;28;20048;-79
2021/06/20 01:48:47;;;;;;;11.95;10.75;;;;;;;22.97;58.76;95699.38;5070886;28;20041;-79
2021/06/20 01:51:13;;;;;;;11.40;10.23;;;;;;;22.99;58.93;95716.41;5070556;28;20041;-79
2021/06/20 01:53:41;;;;;;;11.75;10.23;;;;;;;23.02;58.99;95726.69;5071034;28;20399;-80
2021/06/20 01:56:07;;;;;;;11.20;10.02;;;;;;;23.01;58.28;95741.75;5070396;28;20052;-79
2021/06/20 01:58:35;;;;;;;13.77;10.52;;;;;;;22.96;58.63;95750.53;5070957;28;20040;-79
2021/06/20 02:01:02;;;;;;;13.95;11.15;;;;;;;22.94;58.43;95749.38;5070675;28;20055;-78
2021/06/20 02:03:29;;;;;;;11.70;10.38;;;;;;;22.89;58.73;95737.53;5070841;28;20048;-79
2021/06/20 02:05:58;;;;;;;14.00;10.48;;;;;;;22.89;59.14;95736.75;5071071;28;20036;-79
2021/06/20 02:08:26;;;;;;;12.77;10.13;;;;;;;22.91;59.03;95745.44;5070351;28;20091;-79
2021/06/20 02:10:54;;;;;;;12.52;10.52;;;;;;;22.90;60.07;95741.88;5070854;28;20052;-79
2021/06/20 02:13:23;;;;;;;11.48;10.38;;;;;;;22.85;60.63;95733.16;5070291;28;20052;-79
2021/06/20 02:15:52;;;;;;;11.57;10.48;;;;;;;22.81;60.24;95735.19;5070725;28;20040;-79
2021/06/20 02:18:18;;;;;;;12.05;10.85;;;;;;;22.79;59.53;95745.94;5070290;28;20064;-80
2021/06/20 02:20:46;;;;;;;11.45;10.13;;;;;;;22.74;60.55;95755.50;5070769;28;20051;-80
2021/06/20 02:23:13;;;;;;;13.65;11.82;;;;;;;22.72;60.57;95746.00;5070011;28;20048;-79
2021/06/20 02:25:41;;;;;;;14.18;11.73;;;;;;;22.71;60.99;95738.88;5072207;28;20047;-79
2021/06/20 02:28:08;;;;;;;12.52;11.32;;;;;;;22.67;60.70;95734.16;5074204;28;20041;-79
2021/06/20 02:30:34;;;;;;;12.43;10.88;;;;;;;22.61;60.65;95727.47;5074505;28;20052;-80
2021/06/20 02:36:34;;;;;;;14.18;10.98;;;;;;;22.47;61.10;95708.19;5092010;28;20097;-80
2021/06/20 02:39:00;;;;;;;13.95;11.15;;;;;;;22.44;61.72;95705.44;5094730;28;20584;-80
2021/06/20 02:41:27;;;;;;;12.32;10.55;;;;;;;22.49;61.75;95705.78;5094382;28;20036;-80
2021/06/20 02:43:55;;;;;;;12.70;11.40;;;;;;;22.52;60.90;95713.28;5094430;28;20054;-80
2021/06/20 02:46:21;;;;;;;13.35;11.27;;;;;;;22.49;60.99;95716.88;5094082;28;20478;-80
2021/06/20 02:48:48;;;;;;;13.55;10.95;;;;;;;22.46;60.86;95712.16;5094357;28;20093;-79
2021/06/20 02:51:14;;;;;;;12.38;10.88;;;;;;;22.43;61.02;95707.44;5094069;28;20537;-80
2021/06/20 02:53:42;;;;;;;13.60;11.32;;;;;;;22.41;61.42;95712.63;5094442;28;20402;-80
2021/06/20 02:56:09;;;;;;;12.57;11.27;;;;;;;22.43;61.46;95712.97;5093810;28;20048;-79
2021/06/20 02:58:35;;;;;;;12.43;10.82;;;;;;;22.46;61.27;95722.47;5091123;28;20131;-80
2021/06/20 03:01:02;;;;;;;12.93;10.88;;;;;;;22.45;61.73;95721.69;5057139;28;20045;-79
2021/06/20 03:03:28;;;;;;;13.60;11.00;;;;;;;22.44;61.35;95724.84;5054023;28;20049;-79
2021/06/20 03:05:55;;;;;;;16.02;11.77;;;;;;;22.40;61.46;95724.91;5053899;28;20503;-80
2021/06/20 03:08:21;;;;;;;12.85;11.18;;;;;;;22.38;61.36;95721.75;5089314;28;20048;-80
2021/06/20 03:10:49;;;;;;;15.43;12.63;;;;;;;22.38;61.43;95728.06;5114318;28;20544;-81
2021/06/20 03:13:15;;;;;;;14.48;12.10;;;;;;;22.36;61.97;95735.25;5113986;28;20050;-80
2021/06/20 03:15:43;;;;;;;13.57;12.18;;;;;;;22.36;62.08;95740.78;5114505;28;20040;-80
2021/06/20 03:18:09;;;;;;;14.23;11.70;;;;;;;22.39;61.43;95737.19;5113850;28;20047;-81
2021/06/20 03:20:36;;;;;;;12.27;10.90;;;;;;;22.31;62.31;95750.34;5114266;28;20050;-79
2021/06/20 03:23:03;;;;;;;14.88;12.20;;;;;;;22.20;62.45;95751.63;5113767;28;20051;-79
2021/06/20 03:25:29;;;;;;;13.70;12.30;;;;;;;22.11;63.07;95752.88;5114274;28;20051;-80
2021/06/20 03:27:57;;;;;;;14.38;12.02;;;;;;;22.04;63.15;95743.78;5114310;28;20047;-80
2021/06/20 03:30:24;;;;;;;13.73;11.73;;;;;;;22.01;63.55;95747.38;5095197;28;20040;-79
2021/06/20 03:32:51;;;;;;;15.98;11.77;;;;;;;21.97;63.25;95757.69;5093895;28;20051;-80
2021/06/20 03:35:17;;;;;;;15.90;12.10;;;;;;;21.82;63.28;95762.53;5093123;28;20048;-79
2021/06/20 03:37:44;;;;;;;15.15;11.95;;;;;;;21.71;64.25;95768.13;5096868;28;20046;-80
2021/06/20 03:40:10;;;;;;;13.63;12.23;;;;;;;21.69;64.44;95764.22;5113497;28;20047;-80
2021/06/20 03:42:37;;;;;;;15.48;11.43;;;;;;;21.60;64.08;95761.88;5114113;28;20040;-80
2021/06/20 03:45:08;;;;;;;14.80;12.10;;;;;;;21.53;64.24;95768.25;5113372;28;20054;-79
2021/06/20 03:47:35;;;;;;;13.15;11.85;;;;;;;21.57;64.42;95774.56;5113791;28;20039;-80
2021/06/20 03:50:01;;;;;;;12.98;11.63;;;;;;;21.57;64.84;95771.00;5113635;28;20156;-79
2021/06/20 03:52:28;;;;;;;18.00;12.32;;;;;;;21.56;64.72;95764.69;5113496;28;20040;-80
2021/06/20 03:54:55;;;;;;;14.00;12.48;;;;;;;21.54;64.79;95769.81;5113515;28;20051;-80
2021/06/20 03:57:22;;;;;;;13.52;11.82;;;;;;;21.56;64.88;95767.44;5113016;28;20446;-80
2021/06/20 03:59:49;;;;;;;14.73;13.18;;;;;;;21.63;64.35;95770.16;5099963;28;20049;-80
2021/06/20 04:02:17;;;;;;;21.13;12.85;;;;;;;21.65;64.64;95774.50;5092765;28;20048;-79
2021/06/20 04:04:44;;;;;;;15.23;13.10;;;;;;;21.67;64.00;95784.00;5092995;28;20044;-79
2021/06/20 04:07:12;;;;;;;15.35;13.55;;;;;;;21.73;64.33;95781.59;5098323;28;20043;-80
2021/06/20 04:09:38;;;;;;;15.52;12.23;;;;;;;21.76;64.45;95783.56;5113352;28;20067;-79
2021/06/20 04:12:05;;;;;;;15.70;12.90;;;;;;;21.80;64.75;95784.31;5112935;28;20051;-79
2021/06/20 04:14:32;;;;;;;15.55;12.90;;;;;;;21.82;64.75;95784.69;5113259;28;20042;-79
2021/06/20 04:16:58;;;;;;;14.80;13.27;;;;;;;21.79;65.16;95780.78;5113105;28;20047;-79
2021/06/20 04:19:26;;;;;;;15.40;13.80;;;;;;;21.83;64.54;95780.75;5112555;28;20383;-80
2021/06/20 04:21:53;;;;;;;16.17;13.57;;;;;;;21.79;64.89;95775.22;5113229;28;20039;-80
2021/06/20 04:24:19;;;;;;;20.52;13.52;;;;;;;21.81;64.92;95772.03;5112668;28;20043;-79
2021/06/20 04:26:46;;;;;;;16.23;14.07;;;;;;;21.79;65.19;95768.91;5113201;28;20648;-79
2021/06/20 04:29:12;;;;;;;15.07;13.50;;;;;;;21.75;65.54;95762.59;5104193;28;20048;-79
2021/06/20 04:31:39;;;;;;;15.85;13.57;;;;;;;21.79;65.30;95763.34;5092672;28;20047;-80
2021/06/20 04:34:06;;;;;;;15.77;13.18;;;;;;;21.77;65.69;95774.03;5091879;28;20048;-80
2021/06/20 04:36:33;;;;;;;14.15;12.68;;;;;;;21.75;66.04;95768.13;5092753;28;20044;-80
2021/06/20 04:39:00;;;;;;;14.63;12.98;;;;;;;21.81;65.49;95766.50;5112711;28;20052;-80
2021/06/20 04:41:27;;;;;;;15.05;13.52;;;;;;;21.83;65.83;95761.34;5112396;28;20047;-80
2021/06/20 04:43:59;;;;;;;15.23;12.27;;;;;;;21.87;65.36;95765.69;5112829;28;20052;-80
2021/06/20 04:46:29;;;;;;;18.05;13.13;;;;;;;21.92;65.02;95772.75;5112317;28;20047;-80
2021/06/20 04:48:57;;;;;;;16.67;13.77;;;;;;;21.94;64.51;95787.03;5111571;28;20126;-80
2021/06/20 04:51:23;;;;;;;13.77;12.25;;;;;;;22.03;64.33;95787.38;5112044;28;20047;-79
2021/06/20 04:53:51;;;;;;;17.42;14.32;;;;;;;22.06;63.46;95794.84;5112681;28;20043;-79
2021/06/20 04:56:18;;;;;;;15.88;13.75;;;;;;;22.12;63.28;95789.69;5111941;28;20051;-80
2021/06/20 04:58:44;;;;;;;14.57;13.02;;;;;;;22.12;63.92;95787.72;5107826;28;20395;-80
2021/06/20 05:01:10;;;;;;;15.35;13.75;;;;;;;22.26;63.21;95788.81;5091380;28;20044;-80
2021/06/20 05:03:37;;;;;;;17.27;13.63;;;;;;;22.40;62.54;95785.94;5092133;28;20051;-80
2021/06/20 05:06:04;;;;;;;16.38;13.25;;;;;;;22.52;62.45;95787.41;5091470;28;20044;-79
2021/06/20 05:08:30;;;;;;;16.60;12.18;;;;;;;22.61;61.92;95791.31;5072845;28;20048;-79
2021/06/20 05:10:58;;;;;;;13.32;11.93;;;;;;;22.64;61.74;95793.25;5071807;28;20045;-79
2021/06/20 05:13:25;;;;;;;14.32;12.82;;;;;;;22.62;61.77;95811.50;5071257;28;20047;-80
2021/06/20 05:15:51;;;;;;;15.45;12.55;;;;;;;22.62;63.18;95817.06;5071531;28;20508;-79
2021/06/20 05:18:18;;;;;;;14.90;13.30;;;;;;;22.65;63.27;95822.56;5071156;28;20071;-79
2021/06/20 05:20:44;;;;;;;15.43;13.70;;;;;;;22.65;62.80;95817.00;5071483;28;20048;-79
2021/06/20 05:23:11;;;;;;;18.17;13.68;;;;;;;22.66;62.76;95815.84;5071081;28;20051;-79
2021/06/20 05:25:37;;;;;;;17.63;13.63;;;;;;;22.64;63.28;95812.66;5071487;28;20048;-79
2021/06/20 05:28:06;;;;;;;17.05;13.57;;;;;;;22.63;63.83;95813.88;5071123;28;20048;-79
2021/06/20 05:30:32;;;;;;;14.95;12.93;;;;;;;22.67;64.20;95811.06;5075598;28;20048;-80
2021/06/20 05:32:59;;;;;;;18.50;13.63;;;;;;;22.70;64.60;95809.44;5091527;28;20045;-80
2021/06/20 05:35:25;;;;;;;17.00;13.75;;;;;;;22.75;64.12;95795.91;5091140;28;20059;-80
2021/06/20 05:37:52;;;;;;;18.20;13.95;;;;;;;22.75;64.71;95806.22;5102986;28;20486;-79
2021/06/20 05:40:18;;;;;;;15.23;13.48;;;;;;;22.77;65.54;95801.88;5111007;28;20058;-79
2021/06/20 05:42:45;;;;;;;16.30;14.18;;;;;;;22.90;65.61;95807.72;5111904;28;20040;-79
2021/06/20 05:45:14;;;;;;;16.30;14.18;;;;;;;23.02;65.75;95807.22;5111084;28;20059;-81
2021/06/20 05:47:40;;;;;;;17.13;14.40;;;;;;;23.12;65.29;95809.06;5111419;28;20039;-80
2021/06/20 05:50:08;;;;;;;18.17;14.60;;;;;;;23.24;64.70;95806.97;5110979;28;20047;-78
2021/06/20 05:52:34;;;;;;;15.25;13.05;;;;;;;23.33;64.88;95801.69;5111717;28;20050;-80
2021/06/20 05:55:01;;;;;;;18.67;14.00;;;;;;;23.43;64.57;95814.69;5111500;28;20043;-79
2021/06/20 05:57:27;;;;;;;17.33;12.95;;;;;;;23.47;64.24;95829.31;5111107;28;20043;-79
2021/06/20 05:59:54;;;;;;;19.52;12.90;;;;;;;23.52;63.61;95842.75;5096916;28;20059;-79
2021/06/20 06:02:21;;;;;;;16.73;13.00;;;;;;;23.51;62.91;95846.75;5090674;28;20048;-79
2021/06/20 06:04:48;;;;;;;18.80;12.93;;;;;;;23.50;62.73;95856.28;5091063;28;20513;-79
2021/06/20 06:07:14;;;;;;;17.70;13.35;;;;;;;23.47;62.89;95857.13;5097110;28;20658;-79
2021/06/20 06:09:41;;;;;;;18.42;13.70;;;;;;;23.52;63.27;95865.00;5111393;28;20044;-80
2021/06/20 06:12:08;;;;;;;14.15;12.40;;;;;;;23.57;62.78;95864.53;5110830;28;20109;-79
2021/06/20 06:14:35;;;;;;;15.73;13.13;;;;;;;23.61;62.76;95868.06;5111403;28;20418;-80
2021/06/20 06:17:01;;;;;;;16.55;13.30;;;;;;;23.61;63.28;95870.84;5111286;28;20059;-80
2021/06/20 06:19:29;;;;;;;15.55;13.82;;;;;;;23.67;62.03;95871.22;5110931;28;20398;-79
2021/06/20 06:21:58;;;;;;;16.23;14.45;;;;;;;23.67;62.92;95866.44;5111213;28;20047;-81
2021/06/20 06:24:24;;;;;;;19.08;14.18;;;;;;;23.69;62.78;95877.91;5110823;28;20054;-80
2021/06/20 06:26:51;;;;;;;20.08;14.80;;;;;;;23.69;62.48;95880.69;5111313;28;20448;-79
2021/06/20 06:29:18;;;;;;;17.92;14.38;;;;;;;23.67;62.38;95883.13;5101601;28;20406;-80
2021/06/20 06:31:44;;;;;;;18.83;14.27;;;;;;;23.73;62.25;95891.00;5090558;28;20621;-79
2021/06/20 06:34:11;;;;;;;18.90;14.57;;;;;;;23.73;62.04;95899.34;5090321;28;20056;-80
2021/06/20 06:36:39;;;;;;;17.88;13.95;;;;;;;23.79;62.36;95897.69;5099890;28;20078;-79
2021/06/20 06:39:06;;;;;;;17.17;14.50;;;;;;;23.86;62.04;95905.94;5110554;28;20040;-80
2021/06/20 06:41:33;;;;;;;16.88;14.75;;;;;;;23.92;62.13;95907.06;5111123;28;20064;-80
2021/06/20 06:44:00;;;;;;;23.67;14.63;;;;;;;23.95;61.67;95922.91;5110912;28;20406;-80
2021/06/20 06:46:27;;;;;;;17.30;14.27;;;;;;;23.97;61.52;95934.41;5110611;28;20502;-80
2021/06/20 06:48:53;;;;;;;18.20;14.60;;;;;;;23.95;61.97;95934.81;5110786;28;20047;-80
2021/06/20 06:51:19;;;;;;;18.05;14.68;;;;;;;23.97;61.29;95939.97;5110732;28;20071;-80
2021/06/20 06:53:47;;;;;;;17.98;14.20;;;;;;;23.89;61.23;95946.81;5111078;28;20031;-78
2021/06/20 06:56:14;;;;;;;20.83;14.27;;;;;;;23.88;60.99;95942.47;5110655;28;20047;-78
2021/06/20 06:58:40;;;;;;;19.02;14.00;;;;;;;23.82;60.80;95933.00;5106747;28;20383;-78
2021/06/20 07:01:07;;;;;;;17.50;13.98;;;;;;;23.84;60.90;95938.91;5090218;28;20044;-77
2021/06/20 07:03:33;;;;;;;16.42;14.57;;;;;;;23.80;61.16;95946.50;5090805;28;20048;-80
2021/06/20 07:06:00;;;;;;;16.80;14.02;;;;;;;23.80;61.53;95946.50;5095023;28;20047;-80
2021/06/20 07:08:26;;;;;;;17.83;14.20;;;;;;;23.79;60.82;95939.38;5110455;28;20063;-80
2021/06/20 07:10:54;;;;;;;16.77;14.63;;;;;;;23.81;60.92;95945.34;5110873;28;20050;-80
2021/06/20 07:13:21;;;;;;;16.73;13.55;;;;;;;23.89;61.31;95947.59;5094885;28;20540;-79
2021/06/20 07:15:47;;;;;;;15.65;12.57;;;;;;;23.93;60.97;95947.56;5114568;28;20055;-79
2021/06/20 07:18:15;;;;;;;18.08;14.00;;;;;;;23.87;61.25;95943.66;5113880;28;20406;-80
2021/06/20 07:20:42;;;;;;;17.20;14.00;;;;;;;23.82;61.07;95953.25;5114227;28;20168;-78
2021/06/20 07:23:08;;;;;;;17.38;13.35;;;;;;;23.86;61.11;95953.22;5113863;28;20062;-80
2021/06/20 07:25:34;;;;;;;15.82;14.15;;;;;;;23.87;61.47;95963.91;5114160;28;20051;-80
2021/06/20 07:28:02;;;;;;;20.70;13.70;;;;;;;23.88;61.06;95959.13;5114150;28;20055;-81
2021/06/20 07:30:30;;;;;;;15.75;12.88;;;;;;;23.90;61.33;95960.28;5094724;28;20040;-79
2021/06/20 07:32:57;;;;;;;16.75;12.00;;;;;;;23.87;61.28;95968.69;5093736;28;20044;-80
2021/06/20 07:35:23;;;;;;;16.00;12.70;;;;;;;23.85;61.59;95962.75;5093077;28;20044;-80
2021/06/20 07:37:50;;;;;;;21.23;12.32;;;;;;;23.85;60.99;95966.31;5093507;28;20065;-80
2021/06/20 07:40:17;;;;;;;19.02;12.05;;;;;;;23.83;61.48;95956.81;5093246;28;20044;-80
2021/06/20 07:42:44;;;;;;;17.42;11.48;;;;;;;23.87;60.94;95968.69;5093443;28;20036;-80
2021/06/20 07:45:14;;;;;;;19.67;11.13;;;;;;;23.94;61.07;95974.16;5093076;28;20048;-81
2021/06/20 07:47:41;;;;;;;21.02;11.60;;;;;;;23.94;60.47;95985.28;5093146;28;20044;-80
2021/06/20 07:50:10;;;;;;;26.98;11.63;;;;;;;23.99;60.88;95976.50;5092702;28;20047;-80
2021/06/20 07:52:37;;;;;;;25.27;12.30;;;;;;;24.07;61.16;95988.34;5093443;28;20507;-80
2021/06/20 07:55:05;;;;;;;19.25;12.18;;;;;;;24.13;60.75;95990.25;5092935;28;20040;-80
2021/06/20 07:57:32;;;;;;;17.75;11.43;;;;;;;24.14;60.65;95988.25;5093077;28;20044;-80
2021/06/20 07:59:59;;;;;;;17.25;11.43;;;;;;;24.18;61.35;95989.78;5093378;28;20048;-80
2021/06/20 08:02:27;;;;;;;19.92;11.55;;;;;;;24.18;61.38;95987.00;5092626;28;20050;-79
2021/06/20 08:04:53;;;;;;;18.52;11.70;;;;;;;24.26;60.48;95989.69;5092986;28;20055;-80
2021/06/20 08:07:20;;;;;;;20.55;12.13;;;;;;;24.28;61.41;95998.44;5092252;28;20048;-79
2021/06/20 08:09:47;;;;;;;18.05;11.27;;;;;;;24.31;60.57;95997.56;5093064;28;20044;-80
2021/06/20 08:12:14;;;;;;;21.00;12.52;;;;;;;24.31;61.24;95997.56;5092632;28;20066;-80
2021/06/20 08:14:40;;;;;;;21.70;11.77;;;;;;;24.33;60.73;96001.53;5092935;28;20040;-79
2021/06/20 08:17:09;;;;;;;18.45;11.38;;;;;;;24.33;60.91;96012.66;5092461;28;20044;-79
2021/06/20 08:19:37;;;;;;;21.33;11.38;;;;;;;24.39;60.57;96010.25;5092644;28;20457;-79
2021/06/20 08:22:04;;;;;;;19.48;10.90;;;;;;;24.44;60.45;96012.56;5092417;28;20494;-79
2021/06/20 08:24:30;;;;;;;15.90;10.98;;;;;;;24.47;60.24;96020.84;5092616;28;20499;-80
2021/06/20 08:26:57;;;;;;;21.30;11.07;;;;;;;24.53;59.40;96023.94;5074694;28;20044;-80
2021/06/20 08:29:23;;;;;;;15.30;10.38;;;;;;;24.61;58.61;96025.44;5092059;28;20043;-78
2021/06/20 08:31:50;;;;;;;21.45;11.10;;;;;;;24.63;59.10;96025.03;5092671;28;20062;-78
2021/06/20 08:34:16;;;;;;;27.50;10.57;;;;;;;24.66;58.77;96024.19;5092227;28;20052;-79
2021/06/20 08:36:44;;;;;;;26.23;10.20;;;;;;;24.77;59.74;96024.06;5092589;28;20044;-79
2021/06/20 08:39:11;;;;;;;25.70;10.63;;;;;;;24.87;58.61;96011.97;5091955;28;20086;-78
2021/06/20 08:41:40;;;;;;;17.90;9.18;;;;;;;25.06;57.69;96025.28;5092577;28;20047;-79
2021/06/20 08:44:19;;;;;;;34.05;10.50;;;;;;;25.27;56.74;96007.44;5092109;28;20044;-78
2021/06/20 08:46:46;;;;;;;22.27;9.55;;;;;;;25.50;55.84;96003.84;5092334;28;20043;-80
2021/06/20 08:49:12;;;;;;;21.10;9.57;;;;;;;25.68;55.75;95993.16;5091895;28;20059;-81
2021/06/20 08:51:40;;;;;;;22.60;10.00;;;;;;;25.93;56.13;96005.91;5092318;28;20044;-80
2021/06/20 08:54:08;;;;;;;23.30;9.45;;;;;;;26.28;55.25;96002.44;5091813;28;20078;-80
2021/06/20 08:56:35;;;;;;;21.58;9.65;;;;;;;26.57;54.30;96007.44;5092127;28;20040;-79
2021/06/20 08:59:04;;;;;;;24.38;9.80;;;;;;;26.76;52.33;96001.06;5084713;28;20055;-75
2021/06/20 09:01:31;;;;;;;26.30;9.73;;;;;;;26.79;52.34;96008.59;5051885;28;20496;-79
2021/06/20 09:03:57;;;;;;;25.73;10.63;;;;;;;26.77;52.45;96011.00;5051888;28;20049;-80
2021/06/20 09:06:24;;;;;;;27.60;9.70;;;;;;;26.90;53.71;96016.72;5067289;28;20059;-80
2021/06/20 09:08:53;;;;;;;26.35;8.57;;;;;;;26.97;51.57;96016.56;5107368;28;20104;-80
2021/06/20 09:11:27;;;;;;;28.92;12.55;;;;;;;27.14;52.54;96017.38;5111902;28;20039;-80
2021/06/20 09:14:01;;;;;;;27.85;8.80;;;;;;;27.23;50.90;96016.78;5112144;28;20406;-81
2021/06/20 09:16:28;;;;;;;23.40;8.65;;;;;;;27.31;49.23;96018.22;5112048;28;20063;-81
2021/06/20 09:18:55;;;;;;;20.52;7.95;;;;;;;27.29;49.90;96015.84;5112150;28;20051;-79
2021/06/20 09:21:24;;;;;;;23.88;7.85;;;;;;;27.34;49.96;96014.53;5111770;28;20047;-79
2021/06/20 09:23:50;;;;;;;24.52;8.82;;;;;;;27.43;49.69;96005.53;5112271;28;20100;-79
2021/06/20 09:26:18;;;;;;;20.58;8.30;;;;;;;27.54;49.73;96001.25;5111763;28;20048;-79
2021/06/20 09:28:48;;;;;;;21.52;7.20;;;;;;;27.67;50.85;95995.75;5107725;28;20036;-78
2021/06/20 09:31:14;;;;;;;18.40;8.27;;;;;;;27.85;47.84;95997.31;5091357;28;20578;-79
2021/06/20 09:33:41;;;;;;;21.30;7.90;;;;;;;27.97;48.15;95993.78;5091685;28;20044;-79
2021/06/20 09:36:07;;;;;;;21.55;7.60;;;;;;;28.15;50.04;95984.91;5090484;28;20078;-79
2021/06/20 09:38:36;;;;;;;18.40;7.55;;;;;;;28.18;47.78;95976.41;5091607;28;20052;-79
2021/06/20 09:41:05;;;;;;;27.83;7.68;;;;;;;28.11;47.00;95973.81;5091127;28;20048;-79
2021/06/20 09:43:32;;;;;;;24.10;7.60;;;;;;;28.06;48.57;95974.34;5091556;28;20498;-79
2021/06/20 09:46:01;;;;;;;22.30;8.07;;;;;;;28.18;50.22;95965.19;5091557;28;20047;-79
2021/06/20 09:48:29;;;;;;;17.90;7.68;;;;;;;28.27;48.34;95959.75;5091265;28;20036;-79
2021/06/20 09:50:57;;;;;;;25.10;7.95;;;;;;;28.29;47.25;95960.06;5091438;28;20059;-79
2021/06/20 09:53:34;;;;;;;21.35;7.45;;;;;;;28.43;47.38;95949.72;5091077;28;20047;-78
2021/06/20 09:56:15;;;;;;;25.88;7.35;;;;;;;28.57;46.50;95943.72;5091250;28;20047;-79
2021/06/20 09:58:44;;;;;;;22.73;7.60;;;;;;;28.65;45.67;95947.84;5084606;28;20040;-78
2021/06/20 10:01:13;;;;;;;25.65;7.35;;;;;;;28.80;47.70;95948.97;5091360;28;20423;-78
2021/06/20 10:03:40;;;;;;;19.13;6.38;;;;;;;28.91;45.95;95947.88;5091262;28;20051;-80
2021/06/20 10:06:07;;;;;;;22.90;7.05;;;;;;;28.91;44.20;95947.88;5090575;28;20040;-79
2021/06/20 10:08:34;;;;;;;25.90;7.53;;;;;;;28.80;45.43;95946.19;5091164;28;20040;-80
2021/06/20 10:11:00;;;;;;;19.10;6.68;;;;;;;28.93;43.78;95951.03;5091122;28;20044;-81
2021/06/20 10:13:27;;;;;;;28.83;6.97;;;;;;;29.01;45.73;95950.34;5090667;28;20044;-80
2021/06/20 10:15:54;;;;;;;22.10;6.70;;;;;;;29.18;43.41;95944.63;5091014;28;20063;-80
2021/06/20 10:18:22;;;;;;;23.88;6.97;;;;;;;29.29;44.79;95923.44;5090568;28;20048;-79
2021/06/20 10:20:56;;;;;;;28.30;6.75;;;;;;;29.38;44.20;95929.09;5091070;28;20062;-80
2021/06/20 10:23:24;;;;;;;21.13;5.90;;;;;;;29.43;42.28;95913.72;5090724;28;20418;-80
2021/06/20 10:25:51;;;;;;;27.85;6.70;;;;;;;29.50;42.99;95904.31;5091285;28;20128;-79
2021/06/20 10:28:22;;;;;;;22.33;6.05;;;;;;;29.43;41.77;95907.34;5090465;28;20054;-80
2021/06/20 10:30:49;;;;;;;27.67;6.90;;;;;;;29.37;44.05;95919.13;5091288;28;20040;-81
2021/06/20 10:33:19;;;;;;;23.48;6.22;;;;;;;29.34;43.56;95917.25;5090626;28;20055;-81
2021/06/20 10:35:59;;;;;;;20.50;5.85;;;;;;;29.37;43.48;95919.13;5091131;28;20068;-80
2021/06/20 10:38:37;;;;;;;22.70;6.38;;;;;;;29.38;43.58;95914.31;5090607;28;20491;-80
2021/06/20 10:41:04;;;;;;;24.52;5.63;;;;;;;29.31;42.06;95909.72;5090551;28;20139;-80
2021/06/20 10:43:31;;;;;;;27.75;6.55;;;;;;;29.33;42.59;95898.06;5090932;28;20100;-80
2021/06/20 10:45:57;;;;;;;27.02;5.70;;;;;;;29.29;42.63;95901.00;5090976;28;20044;-81
2021/06/20 10:48:26;;;;;;;23.08;5.65;;;;;;;29.31;42.04;95892.91;5093102;28;20051;-78
2021/06/20 10:50:55;;;;;;;32.58;6.30;;;;;;;29.26;42.67;95896.28;5094587;28;20047;-80
2021/06/20 10:53:24;;;;;;;22.92;6.60;;;;;;;29.34;42.23;95896.84;5093999;28;20048;-80
2021/06/20 10:55:54;;;;;;;19.88;5.55;;;;;;;29.27;42.86;95897.84;5094394;28;20403;-80
2021/06/20 10:58:23;;;;;;;25.67;5.78;;;;;;;29.34;43.56;95892.00;5093747;28;20044;-80
2021/06/20 11:00:51;;;;;;;19.52;5.13;;;;;;;29.49;42.50;95889.47;5094150;28;20469;-80
2021/06/20 11:03:27;;;;;;;27.80;5.63;;;;;;;29.65;42.52;95882.94;5093705;28;20044;-81
2021/06/20 11:05:57;;;;;;;17.13;4.93;;;;;;;29.77;43.32;95884.94;5094337;28;20127;-80
2021/06/20 11:08:33;;;;;;;26.92;5.90;;;;;;;29.93;43.51;95892.38;5093780;28;20487;-79
2021/06/20 11:11:08;;;;;;;28.42;5.65;;;;;;;29.92;40.20;95887.22;5094324;28;20572;-80
2021/06/20 11:13:36;;;;;;;23.45;6.00;;;;;;;29.72;41.89;95879.91;5094071;28;20036;-81
2021/06/20 11:16:05;;;;;;;25.42;5.53;;;;;;;29.67;40.79;95874.88;5093540;28;20055;-78
2021/06/20 11:18:32;;;;;;;27.45;6.38;;;;;;;29.72;42.18;95871.47;5094087;28;20070;-79
2021/06/20 11:21:00;;;;;;;18.50;5.00;;;;;;;29.76;41.55;95868.56;5094081;28;20419;-80
2021/06/20 11:23:30;;;;;;;17.63;5.93;;;;;;;29.79;39.57;95854.38;5093761;28;20502;-80